createdAt,value
2023-11-11T00:00:37.837Z,99144.98
2023-11-11T00:03:25.800Z,99147.29
2023-11-11T00:05:53.534Z,99144.64
2023-11-11T00:08:23.583Z,99144.27
2023-11-11T00:10:51.373Z,99144.15
2023-11-11T00:13:20.974Z,99147.23
2023-11-11T00:15:48.820Z,99144.27
2023-11-11T00:18:19.295Z,99138.73
2023-11-11T00:20:51.982Z,99135.52
2023-11-11T00:23:22.467Z,99134.70
2023-11-11T00:25:50.433Z,99130.30
2023-11-11T00:28:18.343Z,99128.11
2023-11-11T00:30:47.139Z,99123.52
2023-11-11T00:33:15.185Z,99126.41
2023-11-11T00:35:43.298Z,99126.92
2023-11-11T00:38:11.394Z,99123.98
2023-11-11T00:40:41.292Z,99119.73
2023-11-11T00:43:10.290Z,99118.14
2023-11-11T00:45:38.304Z,99116.15
2023-11-11T00:48:06.266Z,99116.64
2023-11-11T00:50:34.130Z,99114.14
2023-11-11T00:53:02.421Z,99117.05
2023-11-11T00:55:30.570Z,99117.99
2023-11-11T00:57:59.920Z,99117.66
2023-11-11T01:00:27.784Z,99110.81
2023-11-11T01:02:55.873Z,99108.61
2023-11-11T01:05:24.852Z,99103.86
2023-11-11T01:07:53.117Z,99103.70
2023-11-11T01:10:23.874Z,99098.83
2023-11-11T01:12:55.251Z,99095.95
2023-11-11T01:15:23.324Z,99094.64
2023-11-11T01:17:51.317Z,99089.53
2023-11-11T01:20:19.219Z,99083.16
2023-11-11T01:22:47.618Z,99079.67
2023-11-11T01:25:15.402Z,99078.70
2023-11-11T01:27:43.287Z,99077.84
2023-11-11T01:30:11.527Z,99078.89
2023-11-11T01:32:40.208Z,99076.09
2023-11-11T01:35:08.518Z,99072.89
2023-11-11T01:37:36.247Z,99071.88
2023-11-11T01:40:04.508Z,99065.06
2023-11-11T01:42:32.336Z,99065.51
2023-11-11T01:45:02.869Z,99063.71
2023-11-11T01:47:32.193Z,99062.13
2023-11-11T01:49:59.935Z,99056.20
2023-11-11T01:52:29.198Z,99055.46
2023-11-11T01:54:58.007Z,99052.70
2023-11-11T01:57:26.702Z,99056.36
2023-11-11T01:59:56.082Z,99057.24
2023-11-11T02:02:24.243Z,99056.38
2023-11-11T02:04:52.229Z,99057.36
2023-11-11T02:07:20.681Z,99062.20
2023-11-11T02:09:49.833Z,99060.38
2023-11-11T02:12:19.024Z,99064.10
2023-11-11T02:14:47.102Z,99061.02
2023-11-11T02:17:14.847Z,99057.73
2023-11-11T02:19:42.575Z,99057.84
2023-11-11T02:22:11.238Z,99060.36
2023-11-11T02:24:41.756Z,99055.24
2023-11-11T02:27:09.881Z,99056.34
2023-11-11T02:29:45.237Z,99060.04
2023-11-11T02:32:14.308Z,99058.82
2023-11-11T02:34:42.394Z,99059.77
2023-11-11T02:37:10.158Z,99062.64
2023-11-11T02:39:38.010Z,99059.03
2023-11-11T02:42:05.862Z,99058.79
2023-11-11T02:44:33.533Z,99057.08
2023-11-11T02:47:01.284Z,99064.14
2023-11-11T02:49:29.803Z,99061.39
2023-11-11T02:51:57.563Z,99058.38
2023-11-11T02:54:26.902Z,99059.36
2023-11-11T02:56:54.810Z,99058.70
2023-11-11T02:59:22.744Z,99057.17
2023-11-11T03:01:52.337Z,99058.36
2023-11-11T03:04:20.336Z,99059.20
2023-11-11T03:06:48.231Z,99062.06
2023-11-11T03:09:16.632Z,99061.12
2023-11-11T03:11:44.860Z,99056.98
2023-11-11T03:14:12.622Z,99060.80
2023-11-11T03:16:42.084Z,99057.84
2023-11-11T03:19:10.499Z,99055.89
2023-11-11T03:21:38.213Z,99057.15
2023-11-11T03:24:07.287Z,99051.15
2023-11-11T03:26:35.055Z,99051.21
2023-11-11T03:29:03.479Z,99046.51
2023-11-11T03:31:31.236Z,99046.11
2023-11-11T03:33:58.968Z,99042.38
2023-11-11T03:36:26.831Z,99042.05
2023-11-11T03:38:54.608Z,99039.49
2023-11-11T03:41:22.678Z,99036.98
2023-11-11T03:43:50.502Z,99037.02
2023-11-11T03:46:18.544Z,99037.63
2023-11-11T03:48:46.500Z,99037.60
2023-11-11T03:51:14.197Z,99033.89
2023-11-11T03:53:41.877Z,99033.09
2023-11-11T03:56:09.700Z,99035.59
2023-11-11T03:58:39.837Z,99031.46
2023-11-11T04:01:10.535Z,99030.52
2023-11-11T04:03:40.772Z,99029.92
2023-11-11T04:06:10.548Z,99028.58
2023-11-11T04:08:40.878Z,99029.42
2023-11-11T04:11:09.613Z,99025.24
2023-11-11T04:13:41.849Z,99022.28
2023-11-11T04:16:11.369Z,99020.70
2023-11-11T04:18:39.706Z,99022.33
2023-11-11T04:21:07.697Z,99019.35
2023-11-11T04:23:36.011Z,99020.64
2023-11-11T04:26:03.937Z,99018.00
2023-11-11T04:28:31.685Z,99013.83
2023-11-11T04:30:59.329Z,99011.38
2023-11-11T04:33:29.019Z,99016.52
2023-11-11T04:35:56.871Z,99016.67
2023-11-11T04:38:28.384Z,99014.65
2023-11-11T04:40:58.305Z,99014.40
2023-11-11T04:43:26.137Z,99012.77
2023-11-11T04:48:43.326Z,99010.77
2023-11-11T04:51:11.295Z,99007.59
2023-11-11T04:53:39.084Z,99005.39
2023-11-11T04:56:07.088Z,99005.74
2023-11-11T04:58:39.448Z,99006.72
2023-11-11T05:01:07.180Z,99004.08
2023-11-11T05:03:35.970Z,99002.68
2023-11-11T05:06:04.387Z,99003.73
2023-11-11T05:08:34.020Z,99003.27
2023-11-11T05:11:02.619Z,99007.59
2023-11-11T05:13:35.169Z,99001.80
2023-11-11T05:16:15.490Z,99005.23
2023-11-11T05:18:48.210Z,99002.36
2023-11-11T05:21:17.814Z,99004.70
2023-11-11T05:23:45.608Z,99005.51
2023-11-11T05:26:14.941Z,99002.80
2023-11-11T05:28:42.729Z,99003.71
2023-11-11T05:31:10.732Z,99001.16
2023-11-11T05:33:39.110Z,99003.27
2023-11-11T05:36:09.469Z,99001.91
2023-11-11T05:38:37.338Z,99003.37
2023-11-11T05:41:05.458Z,99004.89
2023-11-11T05:43:33.284Z,99006.37
2023-11-11T05:46:01.394Z,99009.96
2023-11-11T05:48:30.179Z,99008.18
2023-11-11T05:50:58.283Z,99008.94
2023-11-11T05:53:26.452Z,99007.80
2023-11-11T05:55:54.134Z,99005.61
2023-11-11T05:58:21.994Z,99007.95
2023-11-11T06:00:49.687Z,99005.95
2023-11-11T06:03:19.318Z,99008.27
2023-11-11T06:05:50.317Z,99005.39
2023-11-11T06:08:17.948Z,99010.16
2023-11-11T06:10:45.860Z,99009.45
2023-11-11T06:13:13.559Z,99010.33
2023-11-11T06:15:41.585Z,99011.84
2023-11-11T06:18:09.596Z,99013.30
2023-11-11T06:20:37.458Z,99013.88
2023-11-11T06:25:38.368Z,99014.81
2023-11-11T06:28:07.869Z,99017.56
2023-11-11T06:30:36.166Z,99017.77
2023-11-11T06:33:04.132Z,99014.92
2023-11-11T06:35:31.945Z,99018.80
2023-11-11T06:37:59.617Z,99021.28
2023-11-11T06:40:28.512Z,99020.59
2023-11-11T06:42:57.031Z,99020.78
2023-11-11T06:45:25.154Z,99019.27
2023-11-11T06:47:53.109Z,99016.95
2023-11-11T06:50:23.171Z,99018.44
2023-11-11T06:52:50.972Z,99015.16
2023-11-11T06:55:18.780Z,99012.39
2023-11-11T06:57:46.562Z,99008.09
2023-11-11T07:00:20.146Z,99011.02
2023-11-11T07:02:48.897Z,99013.25
2023-11-11T07:05:16.758Z,99019.64
2023-11-11T07:07:44.953Z,99023.33
2023-11-11T07:10:13.385Z,99027.59
2023-11-11T07:12:42.429Z,99026.74
2023-11-11T07:15:11.572Z,99027.48
2023-11-11T07:17:42.734Z,99026.83
2023-11-11T07:20:11.775Z,99026.45
2023-11-11T07:22:40.222Z,99024.48
2023-11-11T07:25:10.350Z,99025.30
2023-11-11T07:27:38.274Z,99029.00
2023-11-11T07:30:10.863Z,99022.14
2023-11-11T07:32:47.272Z,99016.55
2023-11-11T07:35:21.078Z,99009.75
2023-11-11T07:37:50.834Z,99005.66
2023-11-11T07:40:18.588Z,99005.21
2023-11-11T07:42:46.334Z,99005.56
2023-11-11T07:45:14.266Z,99010.73
2023-11-11T07:47:42.635Z,99016.91
2023-11-11T07:50:10.842Z,99010.23
2023-11-11T07:52:38.710Z,99004.23
2023-11-11T07:55:07.170Z,99006.39
2023-11-11T08:00:07.731Z,99012.19
2023-11-11T08:02:37.412Z,99014.29
2023-11-11T08:05:05.522Z,99011.43
2023-11-11T08:07:33.276Z,99014.17
2023-11-11T08:10:00.979Z,99018.11
2023-11-11T08:12:30.508Z,99023.63
2023-11-11T08:15:01.609Z,99024.55
2023-11-11T08:17:29.518Z,99029.08
2023-11-11T08:19:57.672Z,99025.88
2023-11-11T08:22:26.705Z,99021.69
2023-11-11T08:24:54.409Z,99021.62
2023-11-11T08:27:22.157Z,99020.77
2023-11-11T08:29:50.431Z,99022.39
2023-11-11T08:32:18.417Z,99026.67
2023-11-11T08:34:46.097Z,99030.45
2023-11-11T08:37:14.749Z,99031.85
2023-11-11T08:39:43.415Z,99032.20
2023-11-11T08:42:11.184Z,99031.80
2023-11-11T08:58:16.103Z,99022.02
2023-11-11T09:00:47.089Z,99018.16
2023-11-11T09:03:15.066Z,99017.80
2023-11-11T09:05:42.876Z,99016.98
2023-11-11T09:08:10.724Z,99017.98
2023-11-11T09:10:39.239Z,99018.30
2023-11-11T09:13:07.056Z,99017.93
2023-11-11T09:15:35.042Z,99016.52
2023-11-11T09:18:03.183Z,99015.80
2023-11-11T09:20:33.398Z,99019.26
2023-11-11T09:23:01.281Z,99017.06
2023-11-11T09:25:30.953Z,99009.13
2023-11-11T09:27:59.056Z,99008.60
2023-11-11T09:30:26.908Z,99014.03
2023-11-11T09:32:55.188Z,99011.84
2023-11-11T09:35:23.476Z,99013.27
2023-11-11T09:37:52.308Z,99010.14
2023-11-11T09:40:20.043Z,99008.84
2023-11-11T09:42:48.384Z,99010.30
2023-11-11T09:47:52.301Z,99004.56
2023-11-11T09:50:27.844Z,99000.26
2023-11-11T09:52:58.067Z,98994.27
2023-11-11T09:55:26.963Z,98997.20
2023-11-11T09:57:58.069Z,98995.09
2023-11-11T10:00:28.881Z,98993.98
2023-11-11T10:02:57.818Z,98992.36
2023-11-11T10:05:26.749Z,98990.33
2023-11-11T10:07:56.765Z,98984.91
2023-11-11T10:10:25.932Z,98979.80
2023-11-11T10:12:53.816Z,98978.21
2023-11-11T10:15:22.717Z,98978.81
2023-11-11T10:17:50.688Z,98972.36
2023-11-11T10:20:18.717Z,98970.32
2023-11-11T10:22:48.641Z,98962.73
2023-11-11T10:25:19.446Z,98959.31
2023-11-11T10:27:56.067Z,98960.59
2023-11-11T10:30:25.972Z,98958.64
2023-11-11T10:32:55.654Z,98961.45
2023-11-11T10:35:25.766Z,98963.66
2023-11-11T10:37:53.936Z,98963.61
2023-11-11T10:40:22.482Z,98963.58
2023-11-11T10:42:51.174Z,98962.65
2023-11-11T10:45:19.277Z,98963.86
2023-11-11T10:47:48.286Z,98962.16
2023-11-11T10:50:16.277Z,98962.90
2023-11-11T10:52:44.928Z,98960.40
2023-11-11T10:55:14.118Z,98956.25
2023-11-11T10:57:43.681Z,98955.25
2023-11-11T11:00:22.446Z,98954.23
2023-11-11T11:02:54.638Z,98950.27
2023-11-11T11:05:45.704Z,98954.08
2023-11-11T11:08:23.308Z,98956.48
2023-11-11T11:11:28.541Z,98955.75
2023-11-11T11:14:07.116Z,98958.17
2023-11-11T11:16:39.481Z,98958.73
2023-11-11T11:19:08.934Z,98954.23
2023-11-11T11:21:36.742Z,98952.18
2023-11-11T11:24:11.003Z,98952.24
2023-11-11T11:26:38.903Z,98952.17
2023-11-11T11:29:15.063Z,98952.93
2023-11-11T11:32:05.662Z,98953.22
2023-11-11T11:34:37.318Z,98954.79
2023-11-11T11:37:09.238Z,98956.41
2023-11-11T11:40:02.193Z,98954.90
2023-11-11T11:42:31.613Z,98951.45
2023-11-11T11:45:00.340Z,98949.70
2023-11-11T11:47:35.067Z,98947.64
2023-11-11T11:50:04.962Z,98946.77
2023-11-11T11:52:33.220Z,98947.83
2023-11-11T11:55:01.186Z,98948.52
2023-11-11T11:57:29.163Z,98953.15
2023-11-11T12:00:16.094Z,98954.30
2023-11-11T12:02:44.320Z,98955.06
2023-11-11T12:05:13.750Z,98953.66
2023-11-11T12:07:41.864Z,98954.10
2023-11-11T12:10:12.410Z,98956.45
2023-11-11T12:12:42.311Z,98958.38
2023-11-11T12:15:12.158Z,98956.59
2023-11-11T12:17:48.682Z,98954.62
2023-11-11T12:20:19.090Z,98949.90
2023-11-11T12:22:48.599Z,98948.07
2023-11-11T12:25:16.660Z,98944.94
2023-11-11T12:27:44.617Z,98941.89
2023-11-11T12:30:20.342Z,98939.63
2023-11-11T12:33:09.884Z,98935.10
2023-11-11T12:35:39.985Z,98937.20
2023-11-11T12:38:25.564Z,98938.35
2023-11-11T12:40:54.787Z,98932.92
2023-11-11T12:43:23.960Z,98934.35
2023-11-11T12:45:56.429Z,98930.99
2023-11-11T12:48:30.586Z,98934.43
2023-11-11T12:50:58.609Z,98939.70
2023-11-11T12:53:26.840Z,98938.27
2023-11-11T12:56:06.050Z,98940.05
2023-11-11T12:58:34.251Z,98946.02
2023-11-11T13:01:06.441Z,98944.70
2023-11-11T13:03:34.971Z,98944.73
2023-11-11T13:06:08.175Z,98942.59
2023-11-11T13:08:36.425Z,98938.02
2023-11-11T13:11:05.164Z,98941.19
2023-11-11T13:13:34.862Z,98939.78
2023-11-11T13:16:05.241Z,98941.06
2023-11-11T13:18:33.495Z,98942.14
2023-11-11T13:21:02.598Z,98943.88
2023-11-11T13:23:31.655Z,98944.41
2023-11-11T13:26:00.172Z,98945.80
2023-11-11T13:28:29.797Z,98942.66
2023-11-11T13:30:58.329Z,98939.29
2023-11-11T13:33:26.838Z,98941.90
2023-11-11T13:35:56.768Z,98942.56
2023-11-11T13:38:24.648Z,98947.98
2023-11-11T13:40:53.405Z,98952.01
2023-11-11T13:43:24.334Z,98955.19
2023-11-11T13:47:09.963Z,98960.27
2023-11-11T13:49:38.185Z,98961.54
2023-11-11T13:52:06.576Z,98963.06
2023-11-11T13:54:34.490Z,98966.31
2023-11-11T13:57:02.269Z,98966.33
2023-11-11T13:59:29.993Z,98965.36
2023-11-11T14:01:59.907Z,98962.39
2023-11-11T14:04:28.753Z,98965.07
2023-11-11T14:06:57.763Z,98970.44
2023-11-11T14:09:26.717Z,98969.58
2023-11-11T14:11:54.438Z,98975.63
2023-11-11T14:14:22.206Z,98975.84
2023-11-11T14:16:50.070Z,98973.84
2023-11-11T14:19:18.093Z,98971.44
2023-11-11T14:21:45.795Z,98973.52
2023-11-11T14:24:13.451Z,98976.70
2023-11-11T14:26:47.904Z,98979.20
2023-11-11T14:29:15.946Z,98981.93
2023-11-11T14:31:44.075Z,98983.55
2023-11-11T14:34:12.058Z,98980.10
2023-11-11T14:36:40.359Z,98982.00
2023-11-11T14:39:09.973Z,98979.73
2023-11-11T14:41:38.756Z,98986.39
2023-11-11T14:44:07.213Z,98986.56
2023-11-11T14:46:36.847Z,98991.50
2023-11-11T14:49:10.268Z,98995.58
2023-11-11T14:51:38.099Z,98998.98
2023-11-11T14:54:06.332Z,99000.35
2023-11-11T14:56:36.237Z,99000.31
2023-11-11T14:59:05.226Z,99005.11
2023-11-11T15:01:33.838Z,99007.16
2023-11-11T15:04:02.107Z,99005.84
2023-11-11T15:06:33.699Z,99006.55
2023-11-11T15:09:01.896Z,99006.55
2023-11-11T15:11:29.889Z,99004.44
2023-11-11T15:14:03.699Z,99001.59
2023-11-11T15:16:33.166Z,99005.70
2023-11-11T15:19:02.783Z,99002.63
2023-11-11T15:21:30.897Z,99005.92
2023-11-11T15:23:58.917Z,99001.21
2023-11-11T15:26:27.110Z,99004.30
2023-11-11T15:28:54.977Z,99003.45
2023-11-11T15:31:29.270Z,99007.20
2023-11-11T15:33:59.185Z,99011.48
2023-11-11T15:36:27.407Z,99008.53
2023-11-11T15:38:57.388Z,99005.88
2023-11-11T15:41:25.427Z,99007.05
2023-11-11T15:43:53.933Z,99010.43
2023-11-11T15:46:22.092Z,99009.59
2023-11-11T15:48:49.911Z,99012.77
2023-11-11T15:51:23.105Z,99011.17
2023-11-11T15:53:53.666Z,99014.10
2023-11-11T15:56:21.732Z,99012.04
2023-11-11T15:58:50.042Z,99015.73
2023-11-11T16:01:19.737Z,99015.50
2023-11-11T16:03:51.011Z,99014.48
2023-11-11T16:06:19.291Z,99018.09
2023-11-11T16:08:47.174Z,99016.83
2023-11-11T16:11:18.167Z,99021.91
2023-11-11T16:13:46.000Z,99024.40
2023-11-11T16:16:20.820Z,99026.02
2023-11-11T16:18:49.879Z,99025.91
2023-11-11T16:21:22.619Z,99032.13
2023-11-11T16:23:53.070Z,99035.39
2023-11-11T16:26:21.653Z,99039.77
2023-11-11T16:28:49.408Z,99042.61
2023-11-11T16:31:24.901Z,99047.12
2023-11-11T16:33:54.438Z,99045.20
2023-11-11T16:36:25.383Z,99046.39
2023-11-11T16:38:55.153Z,99047.98
2023-11-11T16:41:24.787Z,99044.20
2023-11-11T16:43:52.974Z,99044.56
2023-11-11T16:46:22.918Z,99045.67
2023-11-11T16:48:51.290Z,99053.08
2023-11-11T16:51:20.603Z,99053.56
2023-11-11T16:53:48.492Z,99057.37
2023-11-11T16:56:18.482Z,99058.21
2023-11-11T16:58:46.255Z,99057.27
2023-11-11T17:01:15.601Z,99057.60
2023-11-11T17:03:43.480Z,99058.86
2023-11-11T17:06:11.494Z,99058.91
2023-11-11T17:08:40.090Z,99061.02
2023-11-11T17:11:09.558Z,99062.36
2023-11-11T17:13:40.807Z,99060.98
2023-11-11T17:16:10.393Z,99062.73
2023-11-11T17:18:38.464Z,99063.09
2023-11-11T17:21:06.248Z,99064.35
2023-11-11T17:23:34.073Z,99065.09
2023-11-11T17:26:01.797Z,99062.97
2023-11-11T17:28:31.239Z,99062.71
2023-11-11T17:30:59.687Z,99063.13
2023-11-11T17:33:35.951Z,99065.24
2023-11-11T17:36:12.209Z,99064.31
2023-11-11T17:38:41.254Z,99065.65
2023-11-11T17:41:13.584Z,99059.30
2023-11-11T17:43:42.704Z,99058.65
2023-11-11T17:46:19.199Z,99057.39
2023-11-11T17:48:48.077Z,99056.02
2023-11-11T17:51:16.882Z,99054.74
2023-11-11T17:53:44.708Z,99055.73
2023-11-11T17:56:20.535Z,99057.15
2023-11-11T17:58:49.044Z,99057.97
2023-11-11T18:01:18.115Z,99060.65
2023-11-11T18:03:47.070Z,99059.92
2023-11-11T18:06:14.905Z,99063.49
2023-11-11T18:08:42.929Z,99063.06
2023-11-11T18:11:11.413Z,99062.81
2023-11-11T18:13:39.609Z,99062.04
2023-11-11T18:16:18.293Z,99059.16
2023-11-11T18:18:46.788Z,99058.22
2023-11-11T18:21:16.075Z,99059.16
2023-11-11T18:23:45.223Z,99060.70
2023-11-11T18:26:13.609Z,99059.45
2023-11-11T18:28:41.643Z,99060.98
2023-11-11T18:31:09.622Z,99061.13
2023-11-11T18:33:37.703Z,99057.65
2023-11-11T18:36:07.183Z,99059.56
2023-11-11T18:38:36.719Z,99059.07
2023-11-11T18:41:05.196Z,99057.65
2023-11-11T18:43:33.116Z,99059.31
2023-11-11T18:46:01.167Z,99059.19
2023-11-11T18:48:29.371Z,99054.83
2023-11-11T18:50:57.159Z,99048.77
2023-11-11T18:53:24.941Z,99051.42
2023-11-11T18:55:52.656Z,99052.30
2023-11-11T18:58:21.842Z,99060.51
2023-11-11T19:00:50.550Z,99060.33
2023-11-11T19:03:19.009Z,99061.05
2023-11-11T19:05:46.892Z,99062.42
2023-11-11T19:08:14.712Z,99063.93
2023-11-11T19:10:43.378Z,99067.81
2023-11-11T19:13:11.775Z,99073.02
2023-11-11T19:15:39.587Z,99073.96
2023-11-11T19:18:07.962Z,99074.53
2023-11-11T19:20:36.254Z,99078.00
2023-11-11T19:23:05.227Z,99077.45
2023-11-11T19:25:33.160Z,99075.08
2023-11-11T19:28:01.350Z,99074.74
2023-11-11T19:30:29.820Z,99073.23
2023-11-11T19:32:57.778Z,99072.12
2023-11-11T19:35:25.842Z,99076.21
2023-11-11T19:37:55.393Z,99077.16
2023-11-11T19:40:23.755Z,99082.33
2023-11-11T19:42:51.767Z,99083.95
2023-11-11T19:45:19.515Z,99084.69
2023-11-11T19:47:47.685Z,99085.79
2023-11-11T19:50:15.568Z,99083.02
2023-11-11T19:52:43.360Z,99087.98
2023-11-11T19:55:11.179Z,99088.24
2023-11-11T19:57:41.551Z,99088.14
2023-11-11T20:00:12.720Z,99089.80
2023-11-11T20:02:41.332Z,99089.81
2023-11-11T20:05:09.555Z,99088.30
2023-11-11T20:07:37.728Z,99087.99
2023-11-11T20:10:06.795Z,99084.63
2023-11-11T20:12:37.449Z,99092.61
2023-11-11T20:15:12.148Z,99091.13
2023-11-11T20:17:41.237Z,99093.20
2023-11-11T20:20:13.138Z,99092.73
2023-11-11T20:22:42.062Z,99098.14
2023-11-11T20:25:10.122Z,99101.03
2023-11-11T20:27:38.085Z,99104.30
2023-11-11T20:30:10.655Z,99106.41
2023-11-11T20:32:38.618Z,99105.60
2023-11-11T20:35:12.520Z,99106.23
2023-11-11T20:37:43.755Z,99106.99
2023-11-11T20:40:17.028Z,99108.70
2023-11-11T20:42:45.582Z,99106.59
2023-11-11T20:45:13.706Z,99106.70
2023-11-11T20:47:41.620Z,99111.23
2023-11-11T20:50:11.736Z,99111.52
2023-11-11T20:52:39.928Z,99104.98
2023-11-11T20:55:08.507Z,99102.95
2023-11-11T20:57:36.363Z,99101.65
2023-11-11T21:00:07.138Z,99102.60
2023-11-11T21:02:36.278Z,99102.23
2023-11-11T21:05:05.585Z,99103.39
2023-11-11T21:07:35.301Z,99103.35
2023-11-11T21:10:03.345Z,99107.91
2023-11-11T21:12:31.009Z,99103.93
2023-11-11T21:14:59.721Z,99103.36
2023-11-11T21:17:28.611Z,99101.05
2023-11-11T21:19:56.970Z,99102.05
2023-11-11T21:22:25.710Z,99102.70
2023-11-11T21:24:53.597Z,99101.96
2023-11-11T21:27:21.410Z,99103.25
2023-11-11T21:29:49.202Z,99098.27
2023-11-11T21:32:17.073Z,99097.19
2023-11-11T21:34:44.996Z,99091.41
2023-11-11T21:37:12.953Z,99091.58
2023-11-11T21:39:41.204Z,99096.71
2023-11-11T21:42:09.036Z,99087.15
2023-11-11T21:44:36.685Z,99087.43
2023-11-11T21:47:04.884Z,99081.99
2023-11-11T21:49:32.885Z,99082.30
2023-11-11T21:52:00.618Z,99083.16
2023-11-11T21:54:28.362Z,99081.69
2023-11-11T21:56:56.167Z,99088.54
2023-11-11T21:59:24.052Z,99086.56
2023-11-11T22:01:52.025Z,99091.23
2023-11-11T22:04:19.934Z,99086.70
2023-11-11T22:06:47.791Z,99088.59
2023-11-11T22:09:16.202Z,99085.13
2023-11-11T22:11:44.197Z,99090.17
2023-11-11T22:14:12.032Z,99085.41
2023-11-11T22:16:39.956Z,99080.36
2023-11-11T22:19:07.741Z,99086.40
2023-11-11T22:21:35.395Z,99086.79
2023-11-11T22:24:03.080Z,99086.86
2023-11-11T22:26:30.755Z,99087.13
2023-11-11T22:28:58.586Z,99089.69
2023-11-11T22:31:27.393Z,99092.58
2023-11-11T22:33:55.055Z,99086.06
2023-11-11T22:36:23.438Z,99085.11
2023-11-11T22:38:52.133Z,99086.46
2023-11-11T22:41:20.302Z,99085.00
2023-11-11T22:43:50.638Z,99083.61
2023-11-11T22:46:20.187Z,99087.55
2023-11-11T22:48:47.959Z,99087.77
2023-11-11T22:51:15.735Z,99087.77
2023-11-11T22:53:44.663Z,99087.13
2023-11-11T22:56:12.755Z,99086.58
2023-11-11T22:58:40.736Z,99092.02
2023-11-11T23:01:08.541Z,99091.00
2023-11-11T23:03:38.343Z,99090.43
2023-11-11T23:06:06.161Z,99090.40
2023-11-11T23:08:34.051Z,99093.12
2023-11-11T23:11:01.988Z,99087.77
2023-11-11T23:13:31.057Z,99087.90
2023-11-11T23:15:58.815Z,99089.02
2023-11-11T23:18:26.683Z,99093.58
2023-11-11T23:21:07.099Z,99098.67
2023-11-11T23:23:45.228Z,99101.73
2023-11-11T23:26:14.810Z,99100.53
2023-11-11T23:28:43.184Z,99097.43
2023-11-11T23:31:11.061Z,99100.73
2023-11-11T23:33:39.308Z,99099.65
2023-11-11T23:36:07.636Z,99099.52
2023-11-11T23:38:40.123Z,99099.69
2023-11-11T23:41:09.493Z,99101.38
2023-11-11T23:43:38.274Z,99099.86
2023-11-11T23:46:06.197Z,99104.87
2023-11-11T23:48:34.049Z,99103.52
2023-11-11T23:51:02.098Z,99100.58
2023-11-11T23:53:29.746Z,99102.66
2023-11-11T23:55:57.755Z,99104.70
2023-11-11T23:58:25.968Z,99103.77
